Terminal Aerodrome Forecast
Issued by NWS Boston, MA

Home | Current Version | Previous Version | Text Only | Print | Product List | Glossary On
Versions: 1 2 3 4 5 6 7 8 9 10 11 12 13 14 15 16 17 18 19 20 21 22 23 24 25 26 27 28 29 30 31 32 33 34 35 36 37 38 39 40
048
FTUS41 KBOX 240538
TAFBDL
TAF
KBDL 240538Z 2406/2512 00000KT P6SM BKN250
     FM241700 19008KT P6SM BKN150
     FM250100 16005KT P6SM BKN120
     FM250400 13004KT P6SM VCSH OVC040
     FM250600 10004KT P6SM -RA OVC030
     FM250800 08004KT P6SM -RA OVC010=

USA.gov is the U.S. government's official web portal to all federal, state and local government web resources and services.